Time;durP1;ratioP1;P1;durP2;ratioP2;P2;SDS_P1;SDS_P2;PMS_P1;PMS_P2;Temp;Humidity;BMP_temperature;BMP_pressure;BME280_temperature;BME280_humidity;BME280_pressure;Samples;Min_cycle;Max_cycle;Signal;HPM_P1;HPM_P2
2023/12/14 00:02:12;;;;;;;0.40;0.40;;;;;;;4.05;99.11;96216.84;5084218;28;20048;-63
2023/12/14 00:04:41;;;;;;;0.40;0.40;;;;;;;4.07;99.88;96208.25;5082556;28;20580;-64
2023/12/14 00:07:07;;;;;;;0.40;0.40;;;;;;;3.91;99.34;96161.66;5084110;28;20572;-63
2023/12/14 00:09:34;;;;;;;0.40;0.40;;;;;;;4.19;99.18;96200.78;5084084;28;20052;-64
2023/12/14 00:12:01;;;;;;;0.40;0.40;;;;;;;3.98;98.22;96161.06;5084387;28;20048;-64
2023/12/14 00:14:27;;;;;;;0.40;0.40;;;;;;;4.28;97.26;96204.16;5084203;28;20056;-64
2023/12/14 00:16:54;;;;;;;0.40;0.40;;;;;;;4.27;97.33;96210.78;5082590;28;20060;-64
2023/12/14 00:19:23;;;;;;;0.40;0.40;;;;;;;4.28;96.75;96209.63;5084038;28;20487;-65
2023/12/14 00:21:50;;;;;;;0.40;0.40;;;;;;;3.80;97.61;96149.59;5099433;28;20056;-64
2023/12/14 00:24:17;;;;;;;0.40;0.40;;;;;;;4.09;97.75;96204.03;5083359;28;20450;-63
2023/12/14 00:26:44;;;;;;;0.40;0.40;;;;;;;4.17;98.63;96225.00;5087407;28;20500;-64
2023/12/14 00:29:10;;;;;;;0.40;0.40;;;;;;;4.14;98.65;96228.44;5087714;28;20052;-64
2023/12/14 00:31:37;;;;;;;0.40;0.40;;;;;;;3.50;98.46;96120.16;5085950;28;20055;-64
2023/12/14 00:34:04;;;;;;;0.40;0.40;;;;;;;3.96;98.57;96224.41;5087461;28;20048;-63
2023/12/14 00:36:31;;;;;;;0.50;0.50;;;;;;;4.04;98.41;96219.94;5085902;28;20060;-63
2023/12/14 00:38:58;;;;;;;0.40;0.40;;;;;;;3.82;97.88;96199.34;5087786;28;20076;-64
2023/12/14 00:41:25;;;;;;;0.40;0.40;;;;;;;3.67;97.68;96156.25;5087714;28;20066;-64
2023/12/14 00:43:51;;;;;;;0.40;0.40;;;;;;;3.85;98.41;96206.88;5086200;28;20075;-64
2023/12/14 00:46:18;;;;;;;0.40;0.40;;;;;;;3.76;97.51;96176.06;5087236;28;20131;-65
2023/12/14 00:48:45;;;;;;;0.40;0.40;;;;;;;3.99;96.81;96240.16;5085896;28;20103;-63
2023/12/14 00:51:12;;;;;;;0.40;0.40;;;;;;;3.20;96.51;96127.88;5086194;28;20051;-63
2023/12/14 00:53:38;;;;;;;0.40;0.40;;;;;;;3.84;97.51;96238.13;5086188;28;20058;-64
2023/12/14 00:56:08;;;;;;;0.30;0.30;;;;;;;3.80;98.03;96230.97;5087047;28;20052;-63
2023/12/14 00:58:35;;;;;;;0.40;0.40;;;;;;;3.43;97.98;96188.41;5084065;28;20048;-64
2023/12/14 01:01:02;;;;;;;0.40;0.40;;;;;;;3.63;99.70;96236.72;5065670;28;20084;-64
2023/12/14 01:03:29;;;;;;;0.38;0.38;;;;;;;3.83;100.00;96236.53;5066732;28;20193;-64
2023/12/14 01:05:56;;;;;;;0.40;0.40;;;;;;;3.69;98.73;96202.47;5065324;28;20056;-64
2023/12/14 01:08:23;;;;;;;0.35;0.35;;;;;;;3.24;100.00;96224.53;5065153;28;20145;-64
2023/12/14 01:10:49;;;;;;;0.35;0.35;;;;;;;3.24;100.00;96240.97;5066825;28;20159;-63
2023/12/14 01:13:16;;;;;;;0.40;0.40;;;;;;;3.10;100.00;96196.75;5066985;28;20046;-65
2023/12/14 01:15:43;;;;;;;0.40;0.40;;;;;;;3.47;100.00;96228.41;5066650;28;20063;-65
2023/12/14 01:18:10;;;;;;;0.40;0.40;;;;;;;3.55;100.00;96243.91;5065118;28;20056;-63
2023/12/14 01:20:38;;;;;;;0.40;0.40;;;;;;;3.60;100.00;96237.41;5066438;28;20064;-63
2023/12/14 01:23:05;;;;;;;0.40;0.40;;;;;;;3.25;100.00;96193.31;5081827;28;20063;-64
2023/12/14 01:25:31;;;;;;;0.40;0.40;;;;;;;3.20;100.00;96141.56;5066438;28;20076;-64
2023/12/14 01:28:00;;;;;;;0.40;0.40;;;;;;;3.42;100.00;96165.69;5066515;28;20083;-64
2023/12/14 01:30:26;;;;;;;0.40;0.40;;;;;;;3.32;100.00;96130.59;5065940;28;20063;-63
2023/12/14 01:32:53;;;;;;;0.40;0.40;;;;;;;3.78;100.00;96206.66;5066419;28;20063;-64
2023/12/14 01:35:20;;;;;;;0.40;0.40;;;;;;;3.52;100.00;96157.00;5064310;28;20470;-65
2023/12/14 01:37:47;;;;;;;0.40;0.40;;;;;;;3.52;100.00;96143.31;5065410;28;20056;-63
2023/12/14 01:40:14;;;;;;;0.40;0.40;;;;;;;3.98;100.00;96204.88;5081737;28;20135;-65
2023/12/14 01:42:40;;;;;;;0.40;0.40;;;;;;;3.26;99.98;96101.88;5066610;28;20102;-64
2023/12/14 01:45:07;;;;;;;0.40;0.40;;;;;;;3.91;98.28;96172.59;5097701;28;20052;-63
2023/12/14 01:47:34;;;;;;;0.40;0.40;;;;;;;3.43;98.80;96123.47;5086576;28;20116;-63
2023/12/14 01:50:01;;;;;;;0.40;0.40;;;;;;;3.99;98.09;96204.53;5086139;28;20207;-63
2023/12/14 01:52:27;;;;;;;0.40;0.40;;;;;;;3.87;98.81;96193.59;5084390;28;20131;-64
2023/12/14 01:54:55;;;;;;;0.40;0.40;;;;;;;3.93;98.96;96183.22;5084566;28;20556;-64
2023/12/14 01:57:22;;;;;;;0.40;0.40;;;;;;;3.63;99.76;96160.84;5085748;28;20104;-64
2023/12/14 01:59:48;;;;;;;0.40;0.40;;;;;;;4.01;99.17;96188.56;5085867;28;20051;-65
2023/12/14 02:02:15;;;;;;;0.40;0.40;;;;;;;3.92;98.51;96155.00;5085889;28;20044;-64
2023/12/14 02:04:42;;;;;;;0.40;0.40;;;;;;;4.00;99.23;96192.41;5085932;28;20132;-64
2023/12/14 02:07:09;;;;;;;0.40;0.40;;;;;;;3.93;100.00;96175.81;5084247;28;20152;-63
2023/12/14 02:09:36;;;;;;;0.43;0.43;;;;;;;4.06;100.00;96191.03;5085498;28;20083;-64
2023/12/14 02:12:04;;;;;;;0.40;0.40;;;;;;;3.86;100.00;96139.97;5083986;28;20044;-63
2023/12/14 02:14:31;;;;;;;0.40;0.40;;;;;;;4.20;100.00;96175.00;5085276;28;20044;-64
2023/12/14 02:16:58;;;;;;;0.40;0.40;;;;;;;4.08;100.00;96172.28;5085639;28;20134;-63
2023/12/14 02:19:24;;;;;;;0.40;0.40;;;;;;;4.15;100.00;96171.69;5085460;28;20109;-63
2023/12/14 02:21:51;;;;;;;0.30;0.30;;;;;;;2.98;100.00;96016.25;5083930;28;20434;-63
2023/12/14 02:24:18;;;;;;;0.40;0.40;;;;;;;4.05;99.66;96185.88;5085159;28;20051;-63
2023/12/14 02:26:45;;;;;;;0.40;0.40;;;;;;;3.80;100.00;96149.59;5085234;28;20059;-64
2023/12/14 02:29:29;;;;;;;0.40;0.40;;;;;;;3.95;100.00;96168.00;5085176;28;20157;-64
2023/12/14 02:31:55;;;;;;;0.40;0.40;;;;;;;4.03;98.10;96169.81;5084122;28;20048;-63
2023/12/14 02:34:24;;;;;;;0.40;0.40;;;;;;;3.12;98.43;96041.28;5084104;28;20078;-64
2023/12/14 02:36:51;;;;;;;0.40;0.40;;;;;;;3.93;99.74;96175.81;5085385;28;20052;-63
2023/12/14 02:39:18;;;;;;;0.40;0.40;;;;;;;4.11;98.79;96188.03;5085060;28;20048;-63
2023/12/14 02:41:45;;;;;;;0.40;0.40;;;;;;;4.12;98.56;96178.69;5085264;28;20052;-63
2023/12/14 02:44:11;;;;;;;0.40;0.40;;;;;;;4.03;98.99;96175.28;5084643;28;20515;-63
2023/12/14 02:46:38;;;;;;;0.40;0.40;;;;;;;4.07;99.63;96165.22;5083277;28;20086;-63
2023/12/14 02:49:05;;;;;;;0.40;0.40;;;;;;;4.07;99.91;96159.75;5084521;28;20060;-63
2023/12/14 02:51:32;;;;;;;0.30;0.30;;;;;;;4.04;100.00;96160.47;5084700;28;20052;-64
2023/12/14 02:53:59;;;;;;;0.40;0.40;;;;;;;4.07;99.47;96167.97;5084614;28;20051;-63
2023/12/14 02:56:25;;;;;;;0.47;0.47;;;;;;;4.01;99.59;96161.16;5084721;28;20060;-65
2023/12/14 02:58:53;;;;;;;0.40;0.40;;;;;;;4.03;99.61;96158.06;5084904;28;20048;-63
2023/12/14 03:01:21;;;;;;;0.45;0.45;;;;;;;4.03;99.91;96164.31;5084844;28;20140;-64
2023/12/14 03:03:48;;;;;;;0.40;0.40;;;;;;;3.74;99.65;96082.53;5084277;28;20117;-64
2023/12/14 03:06:15;;;;;;;0.40;0.40;;;;;;;4.22;98.80;96156.22;5084489;28;20052;-65
2023/12/14 03:08:41;;;;;;;0.40;0.40;;;;;;;4.20;98.49;96180.47;5084411;28;20052;-64
2023/12/14 03:11:08;;;;;;;0.40;0.40;;;;;;;3.85;98.90;96135.66;5083159;28;20055;-64
2023/12/14 03:13:35;;;;;;;0.40;0.40;;;;;;;4.17;99.73;96170.19;5084502;28;20056;-65
2023/12/14 03:16:02;;;;;;;0.47;0.47;;;;;;;4.16;99.63;96165.06;5084538;28;20628;-64
2023/12/14 03:18:29;;;;;;;0.40;0.40;;;;;;;4.23;99.91;96151.56;5084722;28;20048;-64
2023/12/14 03:20:56;;;;;;;0.45;0.45;;;;;;;4.27;100.00;96166.94;5084256;28;20105;-64
2023/12/14 03:23:22;;;;;;;0.40;0.40;;;;;;;4.11;100.00;96155.16;5083690;28;20454;-65
2023/12/14 03:25:49;;;;;;;0.50;0.50;;;;;;;3.82;100.00;96087.06;5083152;28;20055;-63
2023/12/14 03:28:17;;;;;;;0.40;0.40;;;;;;;4.41;100.00;96158.31;5084854;28;20148;-64
2023/12/14 03:30:44;;;;;;;0.40;0.40;;;;;;;4.15;100.00;96127.84;5083138;28;20048;-64
2023/12/14 03:33:11;;;;;;;0.40;0.40;;;;;;;4.38;100.00;96173.50;5082848;28;20139;-64
2023/12/14 03:35:38;;;;;;;0.40;0.40;;;;;;;4.49;100.00;96160.88;5084506;28;20048;-64
2023/12/14 03:38:04;;;;;;;0.40;0.40;;;;;;;4.22;100.00;96128.06;5084701;28;20052;-64
2023/12/14 03:40:31;;;;;;;0.40;0.40;;;;;;;4.52;100.00;96176.59;5084680;28;20048;-64
2023/12/14 03:42:58;;;;;;;0.40;0.40;;;;;;;4.24;100.00;96101.88;5083040;28;20088;-64
2023/12/14 03:45:25;;;;;;;0.43;0.43;;;;;;;4.39;99.49;96138.66;5074641;28;20075;-65
2023/12/14 03:47:52;;;;;;;0.50;0.50;;;;;;;4.17;99.62;96126.34;5082934;28;20055;-64
2023/12/14 03:50:18;;;;;;;0.40;0.40;;;;;;;4.38;98.24;96148.84;5084471;28;20052;-66
2023/12/14 03:52:46;;;;;;;0.40;0.40;;;;;;;4.62;98.01;96148.66;5082712;28;20507;-65
2023/12/14 03:55:15;;;;;;;0.40;0.40;;;;;;;3.86;97.75;96033.16;5084254;28;20144;-64
2023/12/14 03:57:42;;;;;;;0.35;0.35;;;;;;;3.81;98.73;96069.03;5084117;28;20665;-64
2023/12/14 04:00:10;;;;;;;0.40;0.40;;;;;;;4.42;99.80;96171.66;5083761;28;20075;-64
2023/12/14 04:02:37;;;;;;;0.50;0.50;;;;;;;4.53;99.31;96180.97;5068181;28;20044;-65
2023/12/14 04:05:06;;;;;;;0.50;0.50;;;;;;;4.41;99.61;96172.03;5082784;28;20507;-65
2023/12/14 04:07:33;;;;;;;0.40;0.40;;;;;;;4.43;99.87;96184.22;5067815;28;20045;-64
2023/12/14 04:10:00;;;;;;;0.40;0.40;;;;;;;3.76;100.00;96181.53;5067540;28;20052;-64
2023/12/14 04:12:26;;;;;;;0.40;0.40;;;;;;;2.75;100.00;96067.91;5065948;28;20554;-65
2023/12/14 04:14:53;;;;;;;0.40;0.40;;;;;;;3.11;100.00;96056.09;5067687;28;20056;-64
2023/12/14 04:17:20;;;;;;;0.40;0.40;;;;;;;3.55;100.00;96142.63;5067606;28;20052;-64
2023/12/14 04:19:47;;;;;;;0.40;0.40;;;;;;;3.74;100.00;96183.84;5067196;28;20493;-63
2023/12/14 04:22:13;;;;;;;0.40;0.40;;;;;;;3.52;100.00;96154.28;5067409;28;20075;-64
2023/12/14 04:24:40;;;;;;;0.40;0.40;;;;;;;3.85;100.00;96173.19;5067700;28;20136;-65
2023/12/14 04:27:07;;;;;;;0.40;0.40;;;;;;;3.60;100.00;96180.72;5066928;28;20541;-64
2023/12/14 04:29:34;;;;;;;0.32;0.32;;;;;;;3.64;100.00;96176.13;5067178;28;20348;-65
2023/12/14 04:32:00;;;;;;;0.40;0.40;;;;;;;3.74;100.00;96170.16;5067278;28;20044;-64
2023/12/14 04:34:27;;;;;;;0.40;0.40;;;;;;;3.80;100.00;96160.56;5065826;28;20422;-64
2023/12/14 04:36:57;;;;;;;0.40;0.40;;;;;;;3.83;100.00;96159.03;5067299;28;20060;-64
2023/12/14 04:39:24;;;;;;;0.40;0.40;;;;;;;3.45;100.00;96136.81;5066949;28;20048;-64
2023/12/14 04:41:54;;;;;;;0.32;0.32;;;;;;;3.95;99.83;96200.88;5065792;28;20503;-63
2023/12/14 04:44:22;;;;;;;0.40;0.40;;;;;;;3.49;99.97;96141.28;5078215;28;20062;-63
2023/12/14 04:46:49;;;;;;;0.40;0.40;;;;;;;3.69;100.00;96180.56;5087251;28;20055;-65
2023/12/14 04:49:16;;;;;;;0.40;0.40;;;;;;;3.73;100.00;96186.94;5087476;28;20095;-64
2023/12/14 04:51:43;;;;;;;0.40;0.40;;;;;;;3.80;100.00;96173.44;5085641;28;20052;-63
2023/12/14 04:54:10;;;;;;;0.40;0.40;;;;;;;3.82;100.00;96185.66;5087457;28;20052;-63
2023/12/14 04:56:37;;;;;;;0.40;0.40;;;;;;;3.68;100.00;96168.81;5087121;28;20055;-63
2023/12/14 04:59:03;;;;;;;0.40;0.40;;;;;;;3.91;100.00;96178.09;5086962;28;20047;-63
2023/12/14 05:01:30;;;;;;;0.40;0.40;;;;;;;3.35;100.00;96088.84;5085346;28;20085;-64
2023/12/14 05:04:00;;;;;;;0.40;0.40;;;;;;;3.95;100.00;96184.44;5087029;28;20511;-65
2023/12/14 05:06:27;;;;;;;0.40;0.40;;;;;;;3.96;100.00;96185.25;5086418;28;20063;-64
2023/12/14 05:08:54;;;;;;;0.40;0.40;;;;;;;3.86;100.00;96158.34;5086789;28;20060;-64
2023/12/14 05:11:20;;;;;;;0.40;0.40;;;;;;;3.50;99.75;96090.03;5086889;28;20059;-64
2023/12/14 05:13:47;;;;;;;0.40;0.40;;;;;;;3.98;99.43;96172.00;5086572;28;20056;-65
2023/12/14 05:16:14;;;;;;;0.50;0.50;;;;;;;4.02;99.90;96179.19;5085306;28;20052;-65
2023/12/14 05:18:41;;;;;;;0.40;0.40;;;;;;;4.08;99.18;96172.28;5086816;28;20083;-64
2023/12/14 05:21:08;;;;;;;0.40;0.40;;;;;;;3.27;100.00;96108.97;5087019;28;20052;-64
2023/12/14 05:23:35;;;;;;;0.40;0.40;;;;;;;3.42;100.00;96149.28;5085350;28;20464;-63
2023/12/14 05:26:01;;;;;;;0.32;0.32;;;;;;;3.75;100.00;96158.06;5085152;28;20063;-64
2023/12/14 05:28:28;;;;;;;0.40;0.40;;;;;;;3.84;100.00;96155.19;5086258;28;20047;-64
2023/12/14 05:30:55;;;;;;;0.38;0.38;;;;;;;3.67;100.00;96128.06;5084946;28;20502;-63
2023/12/14 05:33:22;;;;;;;0.40;0.40;;;;;;;4.01;100.00;96172.13;5086381;28;20200;-63
2023/12/14 05:35:49;;;;;;;0.40;0.40;;;;;;;3.94;100.00;96166.44;5086397;28;20048;-64
2023/12/14 05:38:15;;;;;;;0.40;0.40;;;;;;;2.97;100.00;96115.88;5086637;28;20055;-65
2023/12/14 05:40:43;;;;;;;0.40;0.40;;;;;;;3.47;100.00;96135.34;5086513;28;20051;-64
2023/12/14 05:43:10;;;;;;;0.30;0.30;;;;;;;3.93;100.00;96175.00;5086696;28;20108;-65
2023/12/14 05:45:37;;;;;;;0.40;0.40;;;;;;;3.65;100.00;96136.63;5086088;28;20052;-65
2023/12/14 05:48:05;;;;;;;0.40;0.40;;;;;;;3.89;100.00;96168.63;5086212;28;20059;-64
2023/12/14 05:50:32;;;;;;;0.40;0.40;;;;;;;3.86;100.00;96170.09;5085885;28;20048;-65
2023/12/14 05:52:59;;;;;;;0.47;0.47;;;;;;;4.00;99.86;96173.25;5083669;28;20051;-66
2023/12/14 05:55:25;;;;;;;0.40;0.40;;;;;;;3.33;99.69;96096.63;5084972;28;20044;-65
2023/12/14 05:57:54;;;;;;;0.40;0.40;;;;;;;3.74;100.00;96172.91;5085170;28;20452;-65
2023/12/14 06:00:20;;;;;;;0.40;0.40;;;;;;;3.84;100.00;96175.13;5083417;28;20554;-64
2023/12/14 06:02:47;;;;;;;0.40;0.40;;;;;;;3.09;99.45;96069.31;5084925;28;20048;-65
2023/12/14 06:05:14;;;;;;;0.30;0.30;;;;;;;3.74;100.00;96167.44;5085406;28;20063;-65
2023/12/14 06:07:41;;;;;;;0.40;0.40;;;;;;;3.76;100.00;96167.84;5086211;28;20056;-64
2023/12/14 06:10:08;;;;;;;0.30;0.30;;;;;;;3.48;100.00;96125.97;5085990;28;20537;-65
2023/12/14 06:12:35;;;;;;;0.40;0.40;;;;;;;3.76;100.00;96165.13;5084544;28;20098;-65
2023/12/14 06:15:03;;;;;;;0.40;0.40;;;;;;;3.79;100.00;96169.94;5067831;28;20052;-66
2023/12/14 06:17:29;;;;;;;0.40;0.40;;;;;;;3.87;100.00;96166.22;5085916;28;20060;-65
2023/12/14 06:19:57;;;;;;;0.30;0.30;;;;;;;3.93;100.00;96161.28;5085572;28;20056;-64
2023/12/14 06:22:24;;;;;;;0.40;0.40;;;;;;;4.08;100.00;96180.50;5083291;28;20048;-62
2023/12/14 06:24:50;;;;;;;0.40;0.40;;;;;;;3.98;100.00;96153.59;5084125;28;20067;-64
2023/12/14 06:27:17;;;;;;;0.40;0.40;;;;;;;4.19;100.00;96167.91;5070699;28;20048;-63
2023/12/14 06:29:44;;;;;;;0.40;0.40;;;;;;;4.12;100.00;96151.28;5085238;28;20063;-64
2023/12/14 06:32:10;;;;;;;0.40;0.40;;;;;;;4.33;100.00;96168.28;5085097;28;20058;-64
2023/12/14 06:34:37;;;;;;;0.40;0.40;;;;;;;4.11;99.83;96127.75;5083478;28;20098;-63
2023/12/14 06:37:05;;;;;;;0.40;0.40;;;;;;;4.38;99.68;96189.94;5084814;28;20483;-63
2023/12/14 06:39:32;;;;;;;0.40;0.40;;;;;;;4.45;100.00;96192.91;5083977;28;20602;-64
2023/12/14 06:41:58;;;;;;;0.50;0.50;;;;;;;4.57;99.98;96179.09;5083762;28;20044;-64
2023/12/14 06:44:27;;;;;;;0.50;0.50;;;;;;;4.66;99.16;96187.94;5084867;28;20131;-64
2023/12/14 06:46:54;;;;;;;0.50;0.50;;;;;;;3.70;98.77;96026.88;5085359;28;20051;-63
2023/12/14 06:49:21;;;;;;;0.40;0.40;;;;;;;4.75;98.50;96167.78;5083859;28;20054;-64
2023/12/14 06:51:48;;;;;;;0.40;0.40;;;;;;;4.34;99.24;96153.44;5082860;28;20052;-65
2023/12/14 06:54:15;;;;;;;0.40;0.40;;;;;;;1.83;99.02;95759.56;5078457;28;20056;-62
2023/12/14 06:56:42;;;;;;;0.40;0.40;;;;;;;4.56;98.89;96141.88;5072921;28;20581;-61
2023/12/14 06:59:08;;;;;;;0.47;0.47;;;;;;;5.03;99.15;96213.16;5076387;28;20064;-63
2023/12/14 07:01:35;;;;;;;0.43;0.43;;;;;;;4.32;98.52;96100.91;5069413;28;20047;-68
2023/12/14 07:04:05;;;;;;;0.50;0.50;;;;;;;5.22;98.17;96198.72;5083421;28;20093;-62
2023/12/14 07:06:32;;;;;;;0.50;0.50;;;;;;;4.29;96.38;96054.22;5072039;28;20040;-64
2023/12/14 07:08:59;;;;;;;0.50;0.50;;;;;;;5.36;96.67;96201.81;5072242;28;20052;-63
2023/12/14 07:11:25;;;;;;;0.40;0.40;;;;;;;5.42;97.28;96219.59;5065651;28;20045;-69
2023/12/14 07:13:52;;;;;;;0.50;0.50;;;;;;;5.29;96.75;96143.97;5075810;28;20169;-63
2023/12/14 07:16:19;;;;;;;0.50;0.50;;;;;;;5.72;96.49;96201.44;5074184;28;20083;-63
2023/12/14 07:18:46;;;;;;;0.50;0.50;;;;;;;5.25;95.79;96121.16;5066356;28;20052;-69
2023/12/14 07:21:13;;;;;;;0.50;0.50;;;;;;;5.51;94.35;96198.22;5079433;28;20087;-60
2023/12/14 07:23:40;;;;;;;0.50;0.50;;;;;;;4.09;97.47;96146.50;5090273;28;20133;-65
2023/12/14 07:26:07;;;;;;;0.50;0.50;;;;;;;3.61;96.96;95960.53;5078837;28;20059;-62
2023/12/14 07:28:34;;;;;;;0.50;0.50;;;;;;;5.03;96.99;96165.72;5075564;28;20158;-60
2023/12/14 07:31:01;;;;;;;0.50;0.50;;;;;;;5.60;97.04;96220.78;5083880;28;20055;-60
2023/12/14 07:33:28;;;;;;;0.50;0.50;;;;;;;5.35;95.28;96224.91;4807344;28;5001634;-60
2023/12/14 07:35:55;;;;;;;0.50;0.50;;;;;;;5.66;95.72;96209.16;5007834;28;20751;-64
2023/12/14 07:38:22;;;;;;;0.50;0.50;;;;;;;5.71;92.99;96189.66;5007198;28;20058;-64
2023/12/14 07:40:50;;;;;;;0.50;0.50;;;;;;;5.75;92.87;96174.03;5003452;28;20096;-60
2023/12/14 07:43:17;;;;;;;0.57;0.57;;;;;;;5.76;92.46;96180.31;4998655;28;20054;-65
2023/12/14 07:45:45;;;;;;;0.50;0.50;;;;;;;6.03;92.55;96185.66;4994230;28;20050;-65
2023/12/14 07:48:12;;;;;;;0.52;0.52;;;;;;;6.46;92.20;96230.50;5005334;28;20456;-63
2023/12/14 07:50:40;;;;;;;0.52;0.52;;;;;;;5.04;91.82;95988.94;5006618;28;20147;-61
2023/12/14 07:53:06;;;;;;;0.60;0.60;;;;;;;6.18;90.73;96164.72;5006198;28;20565;-61
2023/12/14 07:55:33;;;;;;;0.50;0.50;;;;;;;6.14;91.05;96224.34;5006281;28;20541;-63
2023/12/14 07:58:00;;;;;;;0.60;0.60;;;;;;;5.97;92.45;96213.78;5006096;28;20081;-71
2023/12/14 08:00:27;;;;;;;0.50;0.50;;;;;;;6.41;91.86;96184.81;5007550;28;20054;-66
2023/12/14 08:02:53;;;;;;;0.60;0.60;;;;;;;6.89;89.81;96233.66;5006002;28;20048;-65
2023/12/14 08:05:20;;;;;;;0.60;0.60;;;;;;;7.03;89.53;96222.91;5006358;28;20056;-63
2023/12/14 08:07:47;;;;;;;0.57;0.57;;;;;;;7.24;88.64;96223.25;5000279;28;20149;-63
2023/12/14 08:10:15;;;;;;;0.60;0.60;;;;;;;7.34;88.11;96239.16;4995940;28;20137;-61
2023/12/14 08:12:42;;;;;;;0.70;0.70;;;;;;;7.45;87.58;96228.31;5007109;28;20071;-72
2023/12/14 08:15:09;;;;;;;0.60;0.60;;;;;;;7.46;87.17;96214.16;5005697;28;20133;-69
2023/12/14 08:17:36;;;;;;;0.60;0.60;;;;;;;7.67;87.00;96220.00;5003070;28;20054;-68
2023/12/14 08:20:08;;;;;;;0.70;0.70;;;;;;;7.79;86.40;96234.72;5000042;28;20481;-63
2023/12/14 08:22:35;;;;;;;0.60;0.60;;;;;;;7.89;86.60;96231.34;5005641;28;20046;-62
2023/12/14 08:25:03;;;;;;;0.70;0.70;;;;;;;8.07;86.80;96237.88;5005615;28;20505;-65
2023/12/14 08:27:30;;;;;;;0.70;0.70;;;;;;;7.96;85.13;96195.56;5003879;28;20054;-61
2023/12/14 08:29:57;;;;;;;0.70;0.70;;;;;;;8.41;83.99;96236.78;5006271;28;20049;-69
2023/12/14 08:32:24;;;;;;;0.77;0.77;;;;;;;8.41;83.89;96223.00;5022250;28;20050;-61
2023/12/14 08:34:52;;;;;;;0.70;0.70;;;;;;;8.54;83.47;96246.38;5007297;28;20052;-66
2023/12/14 08:37:19;;;;;;;0.70;0.70;;;;;;;8.65;83.45;96236.25;5020126;28;20061;-62
2023/12/14 08:39:46;;;;;;;0.70;0.70;;;;;;;8.78;83.75;96234.84;5000156;28;20532;-61
2023/12/14 08:42:13;;;;;;;0.70;0.70;;;;;;;8.86;83.81;96236.50;5006970;28;20058;-62
2023/12/14 08:44:41;;;;;;;0.70;0.70;;;;;;;8.87;82.02;96205.75;5001726;28;20054;-62
2023/12/14 08:47:08;;;;;;;0.80;0.80;;;;;;;8.39;82.08;96123.22;5003503;28;20054;-61
2023/12/14 08:49:36;;;;;;;0.70;0.70;;;;;;;9.10;83.28;96211.09;5006235;28;20060;-66
2023/12/14 08:52:04;;;;;;;0.73;0.73;;;;;;;9.46;83.34;96240.63;5006439;28;20053;-63
2023/12/14 08:54:31;;;;;;;0.80;0.80;;;;;;;9.25;82.13;96182.41;4987332;28;20086;-64
2023/12/14 08:56:58;;;;;;;0.80;0.80;;;;;;;9.75;82.30;96225.84;5006007;28;20149;-62
2023/12/14 08:59:25;;;;;;;0.80;0.80;;;;;;;9.21;81.70;96143.69;5001884;28;20064;-64
2023/12/14 09:01:52;;;;;;;0.70;0.70;;;;;;;10.04;79.88;96224.81;5021224;28;20120;-63
2023/12/14 09:04:20;;;;;;;0.80;0.80;;;;;;;8.92;79.73;96069.28;5003828;28;20054;-66
2023/12/14 09:06:47;;;;;;;0.80;0.80;;;;;;;9.77;80.75;96190.28;5006657;28;20050;-64
2023/12/14 09:09:16;;;;;;;0.77;0.77;;;;;;;9.66;79.57;96174.81;5005960;28;20120;-63
2023/12/14 09:11:43;;;;;;;0.80;0.80;;;;;;;9.90;79.75;96169.44;5004452;28;20132;-66
2023/12/14 09:14:10;;;;;;;0.80;0.80;;;;;;;9.06;79.80;96064.66;4999526;28;20145;-66
2023/12/14 09:16:37;;;;;;;0.80;0.80;;;;;;;9.53;80.12;96096.16;5016956;28;20085;-65
2023/12/14 09:19:04;;;;;;;0.80;0.80;;;;;;;10.42;79.81;96210.41;4999256;28;20100;-64
2023/12/14 09:21:31;;;;;;;0.80;0.80;;;;;;;10.04;79.32;96130.75;4997559;28;20509;-67
2023/12/14 09:24:10;;;;;;;0.80;0.80;;;;;;;10.67;78.11;96197.44;5000532;28;20053;-63
2023/12/14 09:26:39;;;;;;;0.80;0.80;;;;;;;10.32;78.08;96103.22;5006049;28;20053;-70
2023/12/14 09:29:06;;;;;;;0.90;0.90;;;;;;;10.75;76.77;96136.53;5005925;28;20093;-65
2023/12/14 09:31:34;;;;;;;0.80;0.80;;;;;;;11.21;76.57;96198.31;5005902;28;20417;-66
2023/12/14 09:34:02;;;;;;;0.85;0.85;;;;;;;10.45;76.39;96045.50;5005480;28;20053;-66
2023/12/14 09:36:28;;;;;;;0.80;0.80;;;;;;;11.17;76.02;96139.34;5004353;28;20058;-66
2023/12/14 09:38:55;;;;;;;0.90;0.90;;;;;;;11.25;75.94;96113.22;5005467;28;20053;-66
2023/12/14 09:41:22;;;;;;;0.90;0.90;;;;;;;9.10;75.83;95852.78;5005435;28;20068;-64
2023/12/14 09:43:51;;;;;;;0.90;0.90;;;;;;;11.54;76.17;96173.00;5004140;28;20057;-66
2023/12/14 09:46:18;;;;;;;0.80;0.80;;;;;;;10.83;75.75;96028.09;5005726;28;20151;-65
2023/12/14 09:48:46;;;;;;;0.88;0.88;;;;;;;11.92;74.71;96167.41;5004869;28;20060;-66
2023/12/14 09:51:13;;;;;;;0.90;0.90;;;;;;;11.71;74.82;96150.03;5005521;28;20304;-65
2023/12/14 09:53:39;;;;;;;0.90;0.90;;;;;;;10.80;73.80;95986.56;5003835;28;20064;-66
2023/12/14 09:56:06;;;;;;;0.90;0.90;;;;;;;11.95;73.39;96126.94;5004707;28;20061;-65
2023/12/14 09:58:34;;;;;;;0.90;0.90;;;;;;;10.51;73.27;95878.59;5002451;28;20076;-71
2023/12/14 10:01:04;;;;;;;1.10;1.10;;;;;;;11.83;72.72;96074.69;5004415;28;20041;-67
2023/12/14 10:03:32;;;;;;;0.90;0.90;;;;;;;12.55;70.79;96155.25;4996982;28;20049;-67
2023/12/14 10:06:01;;;;;;;1.00;1.00;;;;;;;12.54;69.86;96164.81;5003988;28;20049;-63
2023/12/14 10:08:29;;;;;;;0.90;0.90;;;;;;;12.11;70.90;96146.72;4997127;28;20066;-70
2023/12/14 10:10:56;;;;;;;1.00;1.00;;;;;;;11.88;71.43;96049.28;4999915;28;20058;-66
2023/12/14 10:13:43;;;;;;;1.00;1.00;;;;;;;12.69;70.09;96154.41;4994977;28;20604;-66
2023/12/14 10:16:10;;;;;;;1.10;1.10;;;;;;;12.66;69.04;96139.31;5004594;28;20051;-66
2023/12/14 10:18:38;;;;;;;0.90;0.90;;;;;;;12.86;68.32;96159.06;5003830;28;20060;-64
2023/12/14 10:21:08;;;;;;;1.10;1.10;;;;;;;12.02;68.17;96030.59;5002232;28;20049;-66
2023/12/14 10:23:35;;;;;;;1.10;1.10;;;;;;;12.72;68.85;96148.84;4998668;28;20052;-62
2023/12/14 10:26:04;;;;;;;1.00;1.00;;;;;;;12.64;69.35;96130.63;4998682;28;20057;-61
2023/12/14 10:28:31;;;;;;;1.02;1.02;;;;;;;12.62;69.76;96154.44;4994627;28;20536;-67
2023/12/14 10:30:58;;;;;;;0.95;0.95;;;;;;;12.63;70.22;96123.47;5003061;28;20087;-63
2023/12/14 10:33:25;;;;;;;1.10;1.10;;;;;;;12.35;70.99;96056.97;5003357;28;20542;-64
2023/12/14 10:35:53;;;;;;;1.10;1.10;;;;;;;12.49;70.61;96062.44;5004661;28;20060;-65
2023/12/14 10:38:20;;;;;;;1.05;1.05;;;;;;;13.08;70.32;96108.53;4993715;28;20540;-62
2023/12/14 10:40:47;;;;;;;1.10;1.10;;;;;;;13.15;70.06;96088.97;5001445;28;20046;-63
2023/12/14 10:43:16;;;;;;;1.10;1.10;;;;;;;13.11;68.60;96027.06;5000370;28;20099;-64
2023/12/14 10:46:07;;;;;;;1.10;1.10;;;;;;;13.61;68.47;96094.91;5003500;28;20090;-61
2023/12/14 10:48:36;;;;;;;1.10;1.10;;;;;;;13.70;68.23;96114.69;4999935;28;20073;-65
2023/12/14 10:51:05;;;;;;;1.20;1.20;;;;;;;13.95;67.88;96106.09;5004405;28;20053;-62
2023/12/14 10:53:33;;;;;;;1.08;1.08;;;;;;;13.80;66.33;96084.41;5003306;28;20596;-62
2023/12/14 10:56:06;;;;;;;1.25;1.25;;;;;;;14.23;66.08;96107.75;4995347;28;20069;-66
2023/12/14 10:58:58;;;;;;;1.20;1.20;;;;;;;14.20;65.97;96081.53;5003309;28;20057;-63
2023/12/14 11:01:25;;;;;;;1.20;1.20;;;;;;;14.30;66.74;96102.13;5002225;28;20061;-63
2023/12/14 11:03:56;;;;;;;1.10;1.10;;;;;;;13.89;66.29;96031.78;5004025;28;20052;-68
2023/12/14 11:06:35;;;;;;;1.40;1.40;;;;;;;14.39;66.03;96099.63;5003613;28;20137;-67
2023/12/14 11:09:09;;;;;;;1.30;1.30;;;;;;;14.19;66.07;96073.59;4997887;28;20053;-62
2023/12/14 11:11:57;;;;;;;1.20;1.20;;;;;;;14.30;66.35;96085.41;4998115;28;20050;-63
2023/12/14 11:14:26;;;;;;;1.20;1.20;;;;;;;13.79;66.38;96021.56;4987920;28;20057;-63
2023/12/14 11:17:01;;;;;;;1.20;1.20;;;;;;;14.01;67.63;96073.00;5002689;28;20049;-63
2023/12/14 11:19:29;;;;;;;1.30;1.30;;;;;;;13.94;67.44;96039.69;4994516;28;20107;-61
2023/12/14 11:22:24;;;;;;;1.20;1.20;;;;;;;14.10;67.07;96081.66;5002459;28;20058;-62
2023/12/14 11:24:53;;;;;;;1.20;1.20;;;;;;;13.99;68.28;96081.00;4997688;28;20058;-64
2023/12/14 11:27:27;;;;;;;1.17;1.17;;;;;;;13.94;68.30;96073.88;5003386;28;20116;-66
2023/12/14 11:29:54;;;;;;;1.30;1.30;;;;;;;13.92;68.63;96100.56;4996748;28;20072;-61
2023/12/14 11:32:21;;;;;;;1.27;1.27;;;;;;;13.50;69.13;96044.16;5004093;28;20077;-64
2023/12/14 11:34:48;;;;;;;1.13;1.13;;;;;;;13.40;70.59;96077.66;5002129;28;20072;-62
2023/12/14 11:37:15;;;;;;;1.20;1.20;;;;;;;13.76;69.88;96083.63;5002271;28;20050;-62
2023/12/14 11:39:43;;;;;;;1.00;1.00;;;;;;;13.63;70.77;96088.94;4994844;28;20532;-65